Time;durP1;ratioP1;P1;durP2;ratioP2;P2;SDS_P1;SDS_P2;PMS_P1;PMS_P2;Temp;Humidity;BMP_temperature;BMP_pressure;BME280_temperature;BME280_humidity;BME280_pressure;Samples;Min_cycle;Max_cycle;Signal;HPM_P1;HPM_P2
2022/09/24 00:01:15;;;;;;;5.72;3.10;;;;;;;9.73;78.08;99024.83;1732329;82;21105;-43
2022/09/24 00:03:46;;;;;;;3.40;2.77;;;;;;;9.75;77.99;99025.83;1732209;82;22012;-43
2022/09/24 00:06:13;;;;;;;4.17;2.98;;;;;;;9.79;77.89;99031.50;1732257;82;20998;-44
2022/09/24 00:08:40;;;;;;;5.22;3.83;;;;;;;9.83;77.92;99021.51;1732335;82;21018;-44
2022/09/24 00:11:10;;;;;;;4.15;3.33;;;;;;;9.84;77.98;99022.30;1732269;82;21013;-44
2022/09/24 00:13:38;;;;;;;4.25;3.25;;;;;;;9.83;78.15;99021.51;1709916;82;21531;-44
2022/09/24 00:16:07;;;;;;;3.87;3.08;;;;;;;9.88;78.10;99018.50;1732217;82;21334;-44
2022/09/24 00:18:34;;;;;;;;;;;;;;;9.93;77.88;99019.55;1735106;82;21002;-44
2022/09/24 00:21:13;;;;;;;4.17;3.25;;;;;;;9.98;77.73;99012.47;1732349;82;20131;-44
2022/09/24 00:23:40;;;;;;;6.95;3.50;;;;;;;9.92;78.19;99013.16;1711930;82;21061;-44
2022/09/24 00:28:57;;;;;;;4.28;2.62;;;;;;;9.89;77.72;99008.45;1732554;82;21243;-44
2022/09/24 00:31:24;;;;;;;5.25;3.30;;;;;;;9.86;77.75;99001.07;1732143;82;21214;-44
2022/09/24 00:33:51;;;;;;;5.25;2.72;;;;;;;9.90;77.70;99008.67;1732184;82;21516;-44
2022/09/24 00:36:19;;;;;;;6.17;3.50;;;;;;;9.85;77.85;99007.63;1732068;82;21065;-43
2022/09/24 00:38:53;;;;;;;3.77;3.10;;;;;;;9.82;77.96;99006.44;1732276;82;21104;-43
2022/09/24 00:41:22;;;;;;;6.33;3.05;;;;;;;9.81;77.90;99003.52;1732179;82;21098;-43
2022/09/24 00:43:49;;;;;;;2.50;2.27;;;;;;;9.83;77.74;99003.91;1732352;82;21571;-43
2022/09/24 00:46:27;;;;;;;4.55;3.17;;;;;;;9.56;77.71;98954.95;1742253;82;21033;-43
2022/09/24 00:49:04;;;;;;;5.15;3.10;;;;;;;9.85;77.89;98998.14;1741982;82;20942;-44
2022/09/24 00:51:31;;;;;;;4.22;2.90;;;;;;;9.79;77.87;98988.76;1738063;82;21017;-44
2022/09/24 00:54:02;;;;;;;3.17;2.85;;;;;;;9.85;77.90;98997.58;1745938;82;21903;-44
2022/09/24 00:56:36;;;;;;;3.60;2.90;;;;;;;9.91;77.73;98998.84;1739071;81;20925;-44
2022/09/24 00:59:05;;;;;;;3.90;3.10;;;;;;;9.95;77.53;98994.83;1745931;82;21871;-44
2022/09/24 01:01:32;;;;;;;6.08;2.95;;;;;;;9.92;77.57;98995.56;1745611;82;21578;-44
2022/09/24 01:03:58;;;;;;;4.50;3.05;;;;;;;9.91;77.62;99002.12;1745810;82;21099;-44
2022/09/24 01:06:26;;;;;;;5.92;3.08;;;;;;;9.91;77.54;98998.84;1716400;82;21241;-44
2022/09/24 01:08:54;;;;;;;3.35;3.02;;;;;;;9.97;77.50;98994.66;1745664;82;20983;-44
2022/09/24 01:11:48;;;;;;;7.03;3.22;;;;;;;10.04;77.18;98993.99;1745928;82;21033;-44
2022/09/24 01:14:26;;;;;;;5.67;2.85;;;;;;;10.00;77.19;98994.52;1744372;82;21562;-44
2022/09/24 01:17:13;;;;;;;4.15;3.20;;;;;;;9.94;77.31;98992.69;1745700;82;20997;-44
2022/09/24 01:20:21;;;;;;;3.40;2.70;;;;;;;9.98;77.16;98983.25;1745920;82;21231;-44
2022/09/24 01:23:12;;;;;;;3.47;3.08;;;;;;;9.99;76.89;98988.31;1638610;86;21656;-44
2022/09/24 01:26:05;;;;;;;4.42;3.22;;;;;;;9.93;77.04;98987.63;1638560;87;21056;-44
2022/09/24 01:28:54;;;;;;;3.77;3.12;;;;;;;9.88;77.10;98991.99;1713383;82;21017;-44
2022/09/24 01:31:27;;;;;;;3.47;3.17;;;;;;;9.80;77.18;98994.39;1746141;82;21475;-44
2022/09/24 01:33:54;;;;;;;4.22;2.83;;;;;;;9.74;77.17;98989.06;1735083;82;21244;-44
2022/09/24 01:36:21;;;;;;;4.87;3.10;;;;;;;9.74;77.20;98991.20;1716421;82;20976;-44
2022/09/24 01:38:49;;;;;;;3.62;3.00;;;;;;;9.78;77.27;98988.58;1745764;82;21606;-44
2022/09/24 01:41:16;;;;;;;5.37;3.20;;;;;;;9.79;77.39;98990.90;1739665;82;21614;-44
2022/09/24 01:43:43;;;;;;;5.00;3.30;;;;;;;9.75;77.27;98992.77;1745667;82;21025;-44
2022/09/24 01:46:11;;;;;;;3.10;2.52;;;;;;;9.78;77.30;98991.28;1737845;82;21247;-44
2022/09/24 01:48:39;;;;;;;4.20;3.15;;;;;;;9.84;77.18;98991.16;1731943;82;20978;-44
2022/09/24 01:51:16;;;;;;;4.55;3.17;;;;;;;9.88;77.01;98990.64;1709235;82;21535;-44
2022/09/24 01:54:06;;;;;;;4.15;3.00;;;;;;;9.83;77.06;98987.67;1732228;82;21072;-44
2022/09/24 01:56:40;;;;;;;5.17;3.40;;;;;;;9.82;77.10;98988.84;1732253;82;21029;-44
2022/09/24 02:00:08;;;;;;;4.75;3.52;;;;;;;9.86;77.04;98990.23;1796903;79;22662;-44
2022/09/24 02:02:56;;;;;;;4.92;3.02;;;;;;;9.82;77.05;98992.90;1756156;81;20989;-44
2022/09/24 02:05:34;;;;;;;6.15;3.52;;;;;;;9.79;77.03;98994.95;1750968;81;21254;-44
2022/09/24 02:08:11;;;;;;;5.40;3.50;;;;;;;9.76;77.06;98992.20;1751110;81;20934;-44
2022/09/24 02:10:54;;;;;;;5.97;3.00;;;;;;;9.72;77.07;98997.56;1748403;81;20937;-44
2022/09/24 02:13:23;;;;;;;4.35;3.05;;;;;;;9.74;77.14;98999.33;1743493;82;21307;-44
2022/09/24 02:15:53;;;;;;;4.40;3.42;;;;;;;9.77;77.14;98997.83;1748825;82;21024;-44
2022/09/24 02:18:24;;;;;;;3.20;2.90;;;;;;;9.75;77.30;98994.69;1748556;82;21775;-44
2022/09/24 02:20:50;;;;;;;4.05;3.00;;;;;;;9.69;77.33;98992.86;1748420;81;21871;-44
2022/09/24 02:23:17;;;;;;;5.50;3.40;;;;;;;9.65;77.37;98998.79;1748434;82;20886;-44
2022/09/24 02:25:56;;;;;;;3.45;3.10;;;;;;;9.67;77.42;98998.44;1748153;82;21020;-44
2022/09/24 02:28:23;;;;;;;5.35;3.27;;;;;;;9.66;77.43;98997.66;1748353;82;21040;-44
2022/09/24 02:30:54;;;;;;;4.47;3.30;;;;;;;9.61;77.74;99000.66;1748471;82;21545;-44
2022/09/24 02:36:07;;;;;;;5.78;3.17;;;;;;;9.57;77.96;98995.20;1748700;82;20973;-44
2022/09/24 02:38:34;;;;;;;3.98;3.22;;;;;;;9.65;77.83;99001.50;1748447;82;21012;-44
2022/09/24 02:41:00;;;;;;;3.98;3.27;;;;;;;9.71;77.82;99006.83;1748519;82;21077;-44
2022/09/24 02:43:28;;;;;;;3.87;3.47;;;;;;;9.71;77.77;99002.77;1748558;82;21082;-44
2022/09/24 02:45:54;;;;;;;3.27;2.95;;;;;;;9.68;77.79;99002.14;1748326;82;21025;-44
2022/09/24 02:48:21;;;;;;;6.05;3.10;;;;;;;9.65;77.61;99005.55;1748506;82;20898;-44
2022/09/24 02:50:48;;;;;;;5.22;3.52;;;;;;;9.68;77.57;99002.72;1748256;82;21530;-44
2022/09/24 02:53:14;;;;;;;3.70;3.25;;;;;;;9.72;77.60;99007.04;1748457;82;21017;-44
2022/09/24 02:55:41;;;;;;;5.85;3.45;;;;;;;9.69;77.56;99002.33;1748244;82;21141;-44
2022/09/24 02:58:08;;;;;;;6.03;3.00;;;;;;;9.66;77.58;99002.28;1745745;81;21029;-44
2022/09/24 03:00:35;;;;;;;3.37;3.00;;;;;;;9.66;77.65;99007.69;1735072;82;20954;-44
2022/09/24 03:03:01;;;;;;;5.10;3.00;;;;;;;9.71;77.51;99008.75;1734968;82;20965;-44
2022/09/24 03:05:28;;;;;;;3.90;3.25;;;;;;;9.76;77.49;99007.88;1735165;82;20930;-44
2022/09/24 03:07:57;;;;;;;4.42;3.67;;;;;;;9.78;77.47;99012.34;1735082;82;21221;-44
2022/09/24 03:10:25;;;;;;;3.90;2.90;;;;;;;9.75;77.39;99007.66;1734604;82;21062;-44
2022/09/24 03:12:51;;;;;;;3.77;3.40;;;;;;;9.77;77.31;99011.37;1734624;82;21796;-44
2022/09/24 03:15:18;;;;;;;4.05;3.25;;;;;;;9.81;77.17;99015.70;1734619;82;21030;-44
2022/09/24 03:17:44;;;;;;;7.10;3.58;;;;;;;9.85;77.10;99007.63;1734596;82;21065;-44
2022/09/24 03:20:11;;;;;;;6.10;3.15;;;;;;;9.81;76.99;99006.22;1734639;82;21142;-44
2022/09/24 03:22:38;;;;;;;4.15;3.20;;;;;;;9.77;76.97;99010.80;1734478;82;20993;-44
2022/09/24 03:25:06;;;;;;;5.10;2.95;;;;;;;9.76;76.90;99009.23;1734439;82;21542;-44
2022/09/24 03:27:33;;;;;;;5.70;3.50;;;;;;;9.79;76.85;99009.84;1734775;82;21096;-44
2022/09/24 03:32:47;;;;;;;7.75;3.60;;;;;;;9.76;76.84;99007.88;1734758;82;21518;-43
2022/09/24 03:35:14;;;;;;;4.78;3.65;;;;;;;9.72;77.04;99008.39;1738018;82;21270;-44
2022/09/24 03:37:42;;;;;;;5.60;3.25;;;;;;;9.75;77.00;99009.02;1734828;82;21025;-43
2022/09/24 03:40:09;;;;;;;6.03;3.80;;;;;;;9.79;76.80;99010.41;1728969;82;20987;-44
2022/09/24 03:42:36;;;;;;;6.12;3.50;;;;;;;9.83;76.81;99014.74;1734712;82;21042;-44
2022/09/24 03:45:04;;;;;;;4.53;3.47;;;;;;;9.82;76.83;99017.27;1735033;82;22072;-44
2022/09/24 03:47:32;;;;;;;6.00;3.50;;;;;;;9.80;76.81;99018.19;1735006;82;21013;-44
2022/09/24 03:49:58;;;;;;;3.80;3.37;;;;;;;9.78;76.70;99018.35;1734728;82;21012;-44
2022/09/24 03:52:25;;;;;;;3.98;3.40;;;;;;;9.81;76.76;99023.81;1734772;82;21030;-44
2022/09/24 03:54:52;;;;;;;5.12;3.45;;;;;;;9.85;76.76;99017.09;1734739;82;21131;-44
2022/09/24 03:57:19;;;;;;;4.47;3.70;;;;;;;9.84;76.73;99012.25;1734845;82;21082;-44
2022/09/24 03:59:46;;;;;;;5.33;3.40;;;;;;;9.80;76.70;99022.25;1740226;81;21072;-44
2022/09/24 04:02:13;;;;;;;4.65;3.20;;;;;;;9.75;76.43;99023.90;1742693;82;20978;-44
2022/09/24 04:04:40;;;;;;;5.30;3.12;;;;;;;9.74;76.61;99022.90;1742536;82;21370;-44
2022/09/24 04:07:06;;;;;;;4.42;3.15;;;;;;;9.74;76.72;99021.55;1742729;82;20962;-43
2022/09/24 04:09:35;;;;;;;3.95;3.55;;;;;;;9.73;76.72;99024.83;1742485;82;20962;-43
2022/09/24 04:12:02;;;;;;;4.00;3.45;;;;;;;9.67;76.83;99026.29;1742582;82;20922;-44
2022/09/24 04:14:28;;;;;;;4.75;3.70;;;;;;;9.66;76.89;99019.88;1742461;82;22124;-44
2022/09/24 04:16:56;;;;;;;6.20;3.25;;;;;;;9.66;76.83;99022.58;1742471;82;21540;-44
2022/09/24 04:19:22;;;;;;;5.17;3.45;;;;;;;9.66;76.88;99017.95;1742733;82;21506;-44
2022/09/24 04:21:49;;;;;;;4.75;3.42;;;;;;;9.63;77.07;99026.80;1742665;82;21543;-44
2022/09/24 04:24:17;;;;;;;4.08;3.50;;;;;;;9.58;77.11;99028.45;1742681;82;21019;-44
2022/09/24 04:26:43;;;;;;;4.30;3.37;;;;;;;9.58;77.24;99024.39;1742711;82;20961;-44
2022/09/24 04:29:12;;;;;;;3.87;3.15;;;;;;;9.62;77.20;99027.16;1742634;82;21364;-44
2022/09/24 04:31:39;;;;;;;3.95;2.92;;;;;;;9.66;77.11;99034.19;1742649;82;20990;-44
2022/09/24 04:34:06;;;;;;;4.20;3.80;;;;;;;9.64;77.23;99026.99;1742689;82;21254;-44
2022/09/24 04:36:33;;;;;;;4.92;3.62;;;;;;;9.66;77.37;99026.08;1742606;82;20879;-44
2022/09/24 04:39:02;;;;;;;4.85;2.80;;;;;;;9.71;77.24;99030.41;1742700;82;21519;-44
2022/09/24 04:41:28;;;;;;;4.80;3.30;;;;;;;9.75;77.04;99032.02;1742563;82;21041;-44
2022/09/24 04:43:58;;;;;;;4.70;3.58;;;;;;;9.79;76.99;99032.86;1742627;82;21084;-44
2022/09/24 04:46:25;;;;;;;4.75;3.42;;;;;;;9.76;77.02;99032.23;1742654;82;21257;-44
2022/09/24 04:48:52;;;;;;;5.62;3.72;;;;;;;9.73;77.10;99036.25;1742770;82;20930;-44
2022/09/24 04:51:20;;;;;;;5.50;3.45;;;;;;;9.73;77.02;99033.55;1742881;82;20986;-44
2022/09/24 04:53:49;;;;;;;5.47;3.75;;;;;;;9.71;76.95;99035.25;1742734;82;21073;-44
2022/09/24 04:56:15;;;;;;;5.60;3.55;;;;;;;9.72;77.22;99034.11;1743035;82;21041;-44
2022/09/24 04:58:42;;;;;;;5.03;3.58;;;;;;;9.77;77.37;99033.02;1741557;81;21320;-44
2022/09/24 05:01:09;;;;;;;5.65;3.40;;;;;;;9.75;77.42;99036.08;1734711;82;20969;-44
2022/09/24 05:03:38;;;;;;;7.87;3.58;;;;;;;9.77;77.26;99035.16;1734866;82;20998;-44
2022/09/24 05:06:06;;;;;;;5.05;3.02;;;;;;;9.79;77.05;99036.92;1734497;82;20965;-44
2022/09/24 05:08:33;;;;;;;4.85;3.27;;;;;;;9.81;77.07;99044.69;1734459;82;21096;-43
2022/09/24 05:11:01;;;;;;;3.83;3.52;;;;;;;9.74;77.09;99043.20;1734593;82;21213;-43
2022/09/24 05:13:28;;;;;;;8.90;3.60;;;;;;;9.68;77.39;99038.69;1734826;82;21076;-43
2022/09/24 05:15:55;;;;;;;5.83;3.60;;;;;;;9.69;77.33;99044.86;1734446;82;20993;-43
2022/09/24 05:18:22;;;;;;;3.83;3.42;;;;;;;9.70;77.27;99041.02;1734505;82;21100;-44
2022/09/24 05:20:49;;;;;;;4.97;3.30;;;;;;;9.76;77.37;99041.72;1734550;82;20970;-44
2022/09/24 05:23:16;;;;;;;3.47;3.17;;;;;;;9.75;77.27;99045.56;1734527;82;21228;-44
2022/09/24 05:28:28;;;;;;;3.80;3.05;;;;;;;9.69;77.59;99040.23;1734558;82;21021;-44
2022/09/24 05:30:59;;;;;;;4.62;3.17;;;;;;;9.77;77.61;99041.93;1734531;82;20966;-44
2022/09/24 05:33:25;;;;;;;5.67;3.58;;;;;;;9.85;77.52;99046.88;1734625;82;21827;-44
2022/09/24 05:35:56;;;;;;;3.55;3.17;;;;;;;9.87;77.42;99045.95;1734269;82;23136;-44
2022/09/24 05:38:23;;;;;;;4.37;2.90;;;;;;;9.86;77.06;99044.39;1734803;82;20934;-44
2022/09/24 05:40:50;;;;;;;2.87;2.67;;;;;;;9.87;77.32;99044.03;1734544;82;21084;-44
2022/09/24 05:43:20;;;;;;;3.65;2.60;;;;;;;9.94;76.77;99042.78;1734473;82;21360;-44
2022/09/24 05:45:50;;;;;;;5.62;3.20;;;;;;;9.98;76.51;99040.91;1734477;82;21077;-43
2022/09/24 05:48:17;;;;;;;5.35;3.10;;;;;;;9.94;76.48;99040.64;1734659;82;22054;-44
2022/09/24 05:50:43;;;;;;;4.60;2.95;;;;;;;9.90;76.72;99035.17;1734516;82;20965;-44
2022/09/24 05:53:11;;;;;;;3.22;2.60;;;;;;;9.94;76.83;99036.02;1734657;82;20934;-43
2022/09/24 05:55:38;;;;;;;3.52;3.05;;;;;;;10.00;76.44;99035.92;1734501;82;20945;-43
2022/09/24 05:58:06;;;;;;;3.42;2.80;;;;;;;10.02;76.49;99038.28;1734815;82;21002;-44
2022/09/24 06:00:34;;;;;;;3.12;2.83;;;;;;;10.05;76.40;99033.48;1740948;81;21794;-43
2022/09/24 06:03:04;;;;;;;3.35;2.90;;;;;;;10.06;76.36;99039.68;1742706;82;21575;-43
2022/09/24 06:05:38;;;;;;;3.30;2.98;;;;;;;10.09;76.12;99034.88;1743004;82;21033;-44
2022/09/24 06:08:06;;;;;;;3.58;2.90;;;;;;;10.15;76.15;99032.86;1742204;82;26695;-44
2022/09/24 06:10:35;;;;;;;5.92;3.22;;;;;;;10.22;76.02;99036.27;1742623;82;21539;-43
2022/09/24 06:13:03;;;;;;;3.70;3.40;;;;;;;10.24;76.05;99038.83;1710785;82;21038;-44
2022/09/24 06:15:30;;;;;;;5.15;3.02;;;;;;;10.26;76.02;99041.19;1742782;82;21546;-44
2022/09/24 06:17:57;;;;;;;2.95;2.65;;;;;;;10.30;75.76;99042.80;1742473;82;21284;-44
2022/09/24 06:20:24;;;;;;;6.05;2.98;;;;;;;10.37;75.51;99037.47;1742472;82;21036;-44
2022/09/24 06:22:56;;;;;;;3.80;2.77;;;;;;;10.43;75.43;99040.65;1742894;82;21096;-44
2022/09/24 06:25:24;;;;;;;7.30;3.10;;;;;;;10.49;75.79;99041.91;1742578;82;21257;-44
2022/09/24 06:27:59;;;;;;;3.15;2.80;;;;;;;10.58;75.66;99043.77;1742443;82;21536;-43
2022/09/24 06:34:26;;;;;;;;;;;;;;;10.69;73.79;99047.41;1745239;82;21065;-43
2022/09/24 06:36:54;;;;;;;4.30;2.70;;;;;;;10.59;74.61;99056.17;1742711;81;20159;-44
2022/09/24 06:39:23;;;;;;;5.58;2.80;;;;;;;10.55;75.40;99060.77;1742695;82;21086;-44
2022/09/24 06:41:50;;;;;;;3.17;2.67;;;;;;;10.70;74.35;99069.85;1742577;82;21065;-43
2022/09/24 06:44:18;;;;;;;4.08;2.65;;;;;;;10.79;74.15;99069.82;1746686;82;21033;-42
2022/09/24 06:46:45;;;;;;;3.42;3.10;;;;;;;10.86;74.05;99070.47;1750890;81;21025;-42
2022/09/24 06:49:11;;;;;;;4.12;3.08;;;;;;;10.89;73.59;99069.14;1708384;83;21064;-44
2022/09/24 06:51:39;;;;;;;4.15;2.80;;;;;;;10.87;73.00;99070.68;1714844;83;23168;-44
2022/09/24 06:54:06;;;;;;;5.08;2.77;;;;;;;10.83;72.64;99073.92;1714681;83;20973;-44
2022/09/24 06:56:32;;;;;;;3.72;3.02;;;;;;;10.82;72.86;99075.06;1715089;83;21005;-44
2022/09/24 06:58:59;;;;;;;4.08;2.80;;;;;;;10.83;73.15;99076.64;1714749;83;21025;-44
2022/09/24 07:01:26;;;;;;;3.20;2.58;;;;;;;10.82;73.20;99076.42;1707315;83;21037;-44
2022/09/24 07:03:53;;;;;;;4.20;3.20;;;;;;;10.84;73.46;99074.89;1707437;84;21142;-44
2022/09/24 07:06:21;;;;;;;4.20;2.70;;;;;;;10.89;73.20;99081.35;1707447;84;20977;-43
2022/09/24 07:08:51;;;;;;;3.35;2.77;;;;;;;10.90;72.75;99079.42;1707472;84;21009;-44
2022/09/24 07:11:17;;;;;;;4.65;3.15;;;;;;;10.95;72.91;99080.46;1707561;84;21041;-44
2022/09/24 07:13:44;;;;;;;6.40;3.10;;;;;;;10.98;72.97;99083.81;1701922;84;21033;-44
2022/09/24 07:16:11;;;;;;;3.33;3.02;;;;;;;11.02;73.12;99082.49;1707279;84;23171;-44
2022/09/24 07:18:38;;;;;;;6.20;2.77;;;;;;;11.16;73.47;99089.45;1707374;84;21530;-44
2022/09/24 07:21:05;;;;;;;3.65;3.15;;;;;;;11.28;72.60;99085.12;1701649;84;21076;-44
2022/09/24 07:23:32;;;;;;;3.35;2.92;;;;;;;11.35;71.42;99087.92;1707261;84;21040;-44
2022/09/24 07:26:01;;;;;;;4.55;3.60;;;;;;;11.31;71.17;99096.61;1707278;84;21013;-44
2022/09/24 07:28:27;;;;;;;4.08;3.17;;;;;;;11.23;71.01;99096.33;1707558;84;21827;-44
2022/09/24 07:31:00;;;;;;;6.08;2.70;;;;;;;11.21;71.72;99095.33;1707013;84;21458;-43
2022/09/24 07:33:27;;;;;;;3.00;2.72;;;;;;;11.31;71.42;99087.89;1707293;84;21492;-44
2022/09/24 07:35:53;;;;;;;4.85;3.08;;;;;;;11.48;71.34;99087.86;1707248;84;20933;-44
2022/09/24 07:38:21;;;;;;;5.62;2.90;;;;;;;11.61;71.50;99087.83;1707275;84;21017;-44
2022/09/24 07:40:47;;;;;;;3.25;2.58;;;;;;;11.78;71.08;99100.04;1707056;84;21243;-44
2022/09/24 07:43:14;;;;;;;5.20;2.50;;;;;;;11.86;69.56;99092.75;1707364;84;20960;-44
2022/09/24 07:45:41;;;;;;;2.85;2.30;;;;;;;11.88;68.83;99098.58;1707312;84;20929;-44
2022/09/24 07:48:10;;;;;;;3.60;2.87;;;;;;;11.96;68.55;99094.19;1707128;84;21826;-44
2022/09/24 07:50:40;;;;;;;3.20;2.58;;;;;;;12.03;67.50;99101.63;1707210;84;21033;-44
2022/09/24 07:53:11;;;;;;;2.83;2.42;;;;;;;11.82;66.60;99079.69;1707522;84;21135;-44
2022/09/24 07:55:39;;;;;;;2.92;2.72;;;;;;;11.92;67.44;99106.17;1707028;84;20993;-44
2022/09/24 07:58:08;;;;;;;2.55;2.30;;;;;;;11.90;67.88;99108.50;1707302;84;21012;-44
2022/09/24 08:00:35;;;;;;;3.73;2.50;;;;;;;11.93;68.07;99117.25;1709480;82;21029;-44
2022/09/24 08:03:04;;;;;;;3.30;2.65;;;;;;;12.01;67.34;99109.36;1707347;84;21591;-44
2022/09/24 08:05:32;;;;;;;3.55;2.80;;;;;;;12.04;67.03;99108.06;1707369;84;23094;-44
2022/09/24 08:07:59;;;;;;;2.92;2.58;;;;;;;12.04;66.69;99123.58;1707273;84;21045;-44
2022/09/24 08:10:27;;;;;;;3.08;2.60;;;;;;;12.05;66.82;99114.28;1707384;84;20981;-44
2022/09/24 08:12:56;;;;;;;3.20;2.90;;;;;;;12.07;66.69;99119.52;1707441;84;21013;-44
2022/09/24 08:15:22;;;;;;;2.75;2.20;;;;;;;11.89;66.75;99085.20;1707481;84;21009;-44
2022/09/24 08:17:50;;;;;;;3.50;2.55;;;;;;;12.20;66.70;99121.37;1707225;84;23214;-43
2022/09/24 08:20:17;;;;;;;3.80;2.47;;;;;;;12.22;66.20;99121.78;1702604;82;21011;-44
2022/09/24 08:22:44;;;;;;;3.50;2.50;;;;;;;12.20;65.98;99126.80;1681560;85;21061;-44
2022/09/24 08:25:10;;;;;;;3.80;2.60;;;;;;;12.17;66.42;99126.20;1681660;85;21027;-44
2022/09/24 08:27:38;;;;;;;3.40;2.70;;;;;;;12.19;66.07;99123.91;1681612;85;21088;-44
2022/09/24 08:30:06;;;;;;;2.50;2.10;;;;;;;12.16;65.84;99134.16;1681599;85;21254;-44
2022/09/24 08:32:33;;;;;;;4.60;2.50;;;;;;;12.12;65.84;99134.13;1681950;85;21022;-44
2022/09/24 08:35:00;;;;;;;3.10;2.42;;;;;;;12.09;65.44;99128.09;1681690;85;21116;-44
2022/09/24 08:37:28;;;;;;;3.45;2.60;;;;;;;12.07;66.38;99137.77;1681761;85;21082;-44
2022/09/24 08:39:54;;;;;;;2.87;2.60;;;;;;;12.11;66.74;99132.56;1681634;85;21069;-44
2022/09/24 08:42:48;;;;;;;4.45;2.65;;;;;;;12.12;66.06;99130.05;1681605;85;21130;-44
2022/09/24 08:48:09;;;;;;;4.80;2.20;;;;;;;12.03;65.03;99132.30;1681864;85;21049;-43
2022/09/24 08:50:38;;;;;;;5.17;2.70;;;;;;;11.98;65.00;99137.30;1681476;85;21649;-44
2022/09/24 08:53:23;;;;;;;3.52;2.20;;;;;;;11.91;66.14;99137.23;1682064;84;21364;-44
2022/09/24 08:55:53;;;;;;;2.80;2.50;;;;;;;11.89;66.51;99132.17;1681540;85;21094;-44
2022/09/24 08:58:37;;;;;;;2.52;2.33;;;;;;;11.89;66.00;99138.17;1682065;85;22055;-44
2022/09/24 09:01:12;;;;;;;5.17;2.60;;;;;;;11.88;66.36;99132.53;1679121;84;21615;-44
2022/09/24 09:04:08;;;;;;;4.53;2.40;;;;;;;11.96;66.39;99135.52;1681949;85;20985;-44
2022/09/24 09:06:52;;;;;;;3.42;2.47;;;;;;;12.01;66.59;99137.31;1681875;85;21081;-44
2022/09/24 09:09:23;;;;;;;3.10;2.35;;;;;;;12.03;65.63;99132.30;1699429;84;21143;-44
2022/09/24 09:11:57;;;;;;;;;;;;;;;12.04;66.00;99139.30;1697120;84;21005;-43
2022/09/24 09:15:00;;;;;;;2.60;2.02;;;;;;;12.08;65.87;99131.96;1694586;84;20154;-44
2022/09/24 09:17:44;;;;;;;2.27;2.02;;;;;;;12.01;65.06;99135.17;1694472;84;21587;-44
2022/09/24 09:20:23;;;;;;;2.55;2.25;;;;;;;12.10;65.36;99138.39;1694435;84;21078;-44
2022/09/24 09:22:52;;;;;;;2.42;1.90;;;;;;;12.20;64.31;99136.31;1693689;84;21311;-44
2022/09/24 09:25:24;;;;;;;4.27;1.87;;;;;;;12.24;64.07;99139.09;1689276;84;21021;-43
2022/09/24 09:28:05;;;;;;;4.40;2.27;;;;;;;12.31;64.97;99137.77;1694631;84;21081;-43
2022/09/24 09:30:37;;;;;;;2.00;1.85;;;;;;;12.36;63.73;99134.70;1694100;84;21048;-44
2022/09/24 09:33:28;;;;;;;2.72;2.05;;;;;;;12.37;64.32;99139.78;1694489;84;21671;-44
2022/09/24 09:36:15;;;;;;;2.60;1.77;;;;;;;12.42;64.52;99144.09;1694528;84;23177;-44
2022/09/24 09:38:57;;;;;;;1.98;1.70;;;;;;;12.18;62.58;99087.02;1694009;84;21116;-44
2022/09/24 09:41:38;;;;;;;2.15;1.72;;;;;;;12.61;62.07;99132.39;1694547;84;21061;-44
2022/09/24 09:44:25;;;;;;;2.77;1.80;;;;;;;12.63;62.59;99139.57;1694290;84;21117;-44
2022/09/24 09:47:16;;;;;;;3.67;1.85;;;;;;;12.67;61.93;99133.39;1694513;84;21159;-43
2022/09/24 09:49:43;;;;;;;1.77;1.55;;;;;;;12.63;61.48;99130.05;1694530;84;21246;-43
2022/09/24 09:52:17;;;;;;;2.72;1.90;;;;;;;12.59;61.40;99128.47;1694579;84;20996;-44
2022/09/24 09:54:44;;;;;;;3.60;2.05;;;;;;;12.59;61.55;99130.61;1694591;84;21040;-44
2022/09/24 09:57:18;;;;;;;3.35;1.92;;;;;;;12.55;61.78;99131.17;1694595;84;21596;-44
2022/09/24 09:59:52;;;;;;;2.25;1.80;;;;;;;12.62;61.83;99125.02;1694638;84;21076;-44
2022/09/24 10:02:35;;;;;;;2.20;1.80;;;;;;;12.85;62.87;99117.95;1694686;83;21093;-43
2022/09/24 10:05:02;;;;;;;2.95;1.82;;;;;;;13.25;62.61;99116.45;1692960;84;21029;-44
2022/09/24 10:07:30;;;;;;;2.50;1.70;;;;;;;13.59;60.42;99112.09;1694465;84;21089;-44
2022/09/24 10:10:17;;;;;;;2.22;1.80;;;;;;;13.79;60.17;99105.91;1694430;84;21042;-44
2022/09/24 10:12:44;;;;;;;2.67;1.95;;;;;;;13.99;58.71;99109.03;1688228;84;21108;-44
2022/09/24 10:15:18;;;;;;;2.17;1.77;;;;;;;14.20;57.95;99096.78;1694513;84;21142;-44
2022/09/24 10:17:49;;;;;;;2.15;1.62;;;;;;;14.47;56.99;99097.79;1694445;84;21668;-44
2022/09/24 10:20:28;;;;;;;2.08;1.60;;;;;;;14.73;55.24;99091.88;1694484;84;21064;-44
2022/09/24 10:22:59;;;;;;;1.95;1.70;;;;;;;14.92;55.11;99087.34;1694911;84;21044;-44
2022/09/24 10:25:27;;;;;;;4.08;1.72;;;;;;;15.13;54.88;99099.58;1694739;84;21116;-44
2022/09/24 10:30:56;;;;;;;1.72;1.45;;;;;;;15.36;54.32;99086.01;1694638;84;21614;-44
2022/09/24 10:33:22;;;;;;;1.65;1.55;;;;;;;15.44;53.69;99088.91;1693839;84;21001;-43
2022/09/24 10:35:50;;;;;;;2.27;1.67;;;;;;;15.56;52.42;99085.74;1694585;84;21076;-43
2022/09/24 10:38:22;;;;;;;1.87;1.47;;;;;;;15.62;50.91;99090.41;1694910;84;21089;-43
2022/09/24 10:40:49;;;;;;;1.57;1.47;;;;;;;15.63;51.20;99088.45;1694581;84;23139;-43
2022/09/24 10:43:21;;;;;;;2.10;1.30;;;;;;;15.69;51.92;99090.92;1694848;84;21064;-43
2022/09/24 10:46:02;;;;;;;1.70;1.40;;;;;;;15.81;51.33;99086.96;1694797;84;20965;-43
2022/09/24 10:48:57;;;;;;;1.30;1.20;;;;;;;15.96;49.97;99090.57;1688721;84;21089;-43
2022/09/24 10:51:41;;;;;;;2.10;1.37;;;;;;;16.12;49.83;99098.24;1694664;84;21053;-43
2022/09/24 10:54:34;;;;;;;1.80;1.40;;;;;;;16.05;49.33;99085.42;1694553;84;21134;-43
2022/09/24 10:57:07;;;;;;;1.42;1.32;;;;;;;15.73;49.95;99090.93;1694547;84;21040;-43
2022/09/24 11:00:04;;;;;;;3.30;1.55;;;;;;;15.33;51.36;99093.64;1689340;84;21096;-44
2022/09/24 11:03:06;;;;;;;3.17;1.30;;;;;;;15.08;52.47;99099.20;1694317;83;21012;-44
2022/09/24 11:05:55;;;;;;;1.95;1.20;;;;;;;15.01;53.41;99088.29;1694823;84;21061;-44
2022/09/24 11:08:39;;;;;;;1.50;1.23;;;;;;;15.10;52.52;99081.84;1694998;84;21415;-44
2022/09/24 11:11:46;;;;;;;1.65;1.30;;;;;;;15.37;51.69;99088.35;1694475;84;21587;-44
2022/09/24 11:14:45;;;;;;;2.65;1.00;;;;;;;15.73;51.62;99080.00;1694556;84;21109;-44
2022/09/24 11:17:35;;;;;;;2.22;1.02;;;;;;;16.01;49.70;99076.47;1694572;84;21604;-44
2022/09/24 11:20:23;;;;;;;;;;;;;;;16.07;47.85;99076.20;1697291;84;21060;-44
2022/09/24 11:23:18;;;;;;;2.75;1.10;;;;;;;15.99;46.89;99082.92;1694906;84;21142;-44
2022/09/24 11:26:27;;;;;;;1.98;1.42;;;;;;;15.75;48.32;99086.60;1694766;84;21024;-44
2022/09/24 11:29:21;;;;;;;1.27;1.17;;;;;;;15.62;51.28;99082.20;1694657;84;21319;-44
2022/09/24 11:32:20;;;;;;;1.67;1.20;;;;;;;15.67;52.71;99089.20;1694455;84;21545;-44
2022/09/24 11:35:08;;;;;;;1.17;1.07;;;;;;;15.64;52.77;99089.98;1694734;84;21589;-44
2022/09/24 11:38:10;;;;;;;1.35;1.25;;;;;;;15.75;53.67;99093.44;1688888;84;21238;-44
2022/09/24 11:41:16;;;;;;;1.35;1.20;;;;;;;15.88;53.78;99097.25;1694470;84;20961;-44
2022/09/24 11:44:26;;;;;;;1.37;1.25;;;;;;;15.78;51.00;99110.39;1694480;84;21017;-44
2022/09/24 11:47:35;;;;;;;1.77;1.40;;;;;;;15.34;51.05;99123.88;1694559;84;21076;-44
2022/09/24 11:50:14;;;;;;;2.42;1.45;;;;;;;14.67;54.30;99142.56;1694620;84;21049;-44
2022/09/24 11:52:51;;;;;;;1.00;0.98;;;;;;;13.90;57.29;99136.67;1667343;84;21135;-44
2022/09/24 11:55:22;;;;;;;0.75;0.75;;;;;;;13.33;57.71;99131.64;1666601;86;21012;-44
2022/09/24 11:58:18;;;;;;;0.98;0.98;;;;;;;12.88;58.69;99125.34;1666680;86;21012;-44
2022/09/24 12:00:56;;;;;;;1.05;0.88;;;;;;;12.59;58.27;99128.47;1666955;84;21530;-44
2022/09/24 12:03:48;;;;;;;0.95;0.72;;;;;;;12.39;58.42;99117.66;1676862;85;20998;-44
2022/09/24 12:06:23;;;;;;;0.82;0.82;;;;;;;12.31;59.89;99120.89;1624362;88;21154;-44
2022/09/24 12:09:00;;;;;;;0.90;0.80;;;;;;;12.37;60.29;99122.69;1599617;89;21078;-44
2022/09/24 12:11:48;;;;;;;1.87;0.80;;;;;;;12.65;60.96;99117.45;1592246;89;21044;-44
2022/09/24 12:14:22;;;;;;;0.93;0.88;;;;;;;13.22;61.16;99110.39;1600964;89;21048;-44
2022/09/24 12:16:53;;;;;;;1.10;1.00;;;;;;;14.07;59.03;99104.38;1601435;89;21092;-44
2022/09/24 12:19:24;;;;;;;1.40;1.27;;;;;;;14.85;56.68;99109.22;1601265;89;21822;-44
2022/09/24 12:21:52;;;;;;;1.30;1.20;;;;;;;15.52;54.05;99097.28;1601257;89;21117;-44
2022/09/24 12:24:35;;;;;;;1.42;1.20;;;;;;;16.05;52.93;99107.30;1601223;89;20996;-44
2022/09/24 12:27:18;;;;;;;2.77;1.30;;;;;;;16.37;52.47;99102.92;1601006;89;21076;-44